Main page
METAR-TAF:

METAR-TAF

Airports :

Amman Civil Airport

Amman, Jordan

latitude: 31-59N, longitude: 035-59E, elevation: 767 m

Current weather observation

The report was made 1 hour and 36 minutes ago, at 21:00 UTC
Wind 7 kt from the North/Northwest
Temperature 21°C
Humidity 64%
Pressure 1016 hPa
Visibility: 5000 m
haze

METAR: OJAM 212100Z 34007KT 5000 HZ NSC 21/14 Q1016 NOSIG

Time: 01:36 (22:36 UTC)

Forecast

The report was made 5 hours and 36 minutes ago, at 17:00 UTC
Forecast valid from 21 at 18 UTC to 22 at 24 UTC
Wind 10 kt from the West/Northwest
Visibility: 6000 m
Probability 30%
from 22 at 02 UTC to 22 at 06 UTC
Wind 2 kt from variable directions
Visibility: 4000 m
mist
Becoming
from 22 at 06 UTC to 22 at 08 UTC
Visibility: 5000 m
haze

TAF: OJAM 211700Z 2118/2224 30010KT 6000 NSC PROB30 2202/2206 VRB02KT 4000 BR BECMG 2206/2208 5000 HZ

Weather observations and forecasts of more than 4000 airports (METAR and TAF reports).

The available stations are represented by yellow and red dots on the map.

Hover mouse over dot to see the name of the station.

Then click to see weather observations and forecasts.

To change the map : click on the green buttons with a black cross to zoom in, on the green button with a dash to zoom out, or on the green arrows for adjacent maps.


METAR-TAF: